createdAt,value
2022-11-26T00:02:25.058Z,97217.31
2022-11-26T00:05:00.143Z,97230.16
2022-11-26T00:07:36.586Z,97222.44
2022-11-26T00:10:18.905Z,97230.66
2022-11-26T00:12:51.769Z,97232.25
2022-11-26T00:15:26.429Z,97237.75
2022-11-26T00:17:59.475Z,97230.75
2022-11-26T00:20:33.150Z,97245.56
2022-11-26T00:23:06.294Z,97250.31
2022-11-26T00:25:44.448Z,97251.19
2022-11-26T00:28:27.074Z,97250.56
2022-11-26T00:31:02.569Z,97242.47
2022-11-26T00:33:35.542Z,97242.91
2022-11-26T00:36:18.071Z,97254.47
2022-11-26T00:38:55.032Z,97245.38
2022-11-26T00:41:32.799Z,97247.94
2022-11-26T00:44:06.349Z,97245.75
2022-11-26T00:46:42.686Z,97243.75
2022-11-26T00:49:19.438Z,97255.41
2022-11-26T00:51:56.605Z,97251.06
2022-11-26T00:54:29.774Z,97249.34
2022-11-26T00:57:06.558Z,97250.31
2022-11-26T00:59:39.414Z,97248.94
2022-11-26T01:03:10.883Z,97252.25
2022-11-26T01:05:44.624Z,97256.22
2022-11-26T01:08:24.427Z,97264.13
2022-11-26T01:10:57.401Z,97259.56
2022-11-26T01:13:32.033Z,97265.09
2022-11-26T01:16:16.190Z,97258.16
2022-11-26T01:18:50.687Z,97265.88
2022-11-26T01:21:24.299Z,97273.72
2022-11-26T01:23:57.277Z,97279.06
2022-11-26T01:26:34.856Z,97285.22
2022-11-26T01:29:15.663Z,97295.41
2022-11-26T01:31:49.188Z,97289.91
2022-11-26T01:34:22.199Z,97298.22
2022-11-26T01:36:54.981Z,97303.56
2022-11-26T01:39:27.874Z,97310.00
2022-11-26T01:42:08.420Z,97315.84
2022-11-26T01:44:43.064Z,97303.56
2022-11-26T01:47:24.691Z,97310.78
2022-11-26T01:50:40.167Z,97315.06
2022-11-26T01:53:16.400Z,97309.72
2022-11-26T01:55:54.305Z,97319.13
2022-11-26T01:58:32.563Z,97319.91
2022-11-26T02:01:08.943Z,97321.78
2022-11-26T02:03:46.585Z,97316.44
2022-11-26T02:06:24.705Z,97326.66
2022-11-26T02:08:58.150Z,97330.72
2022-11-26T02:11:31.205Z,97335.59
2022-11-26T02:14:07.454Z,97340.13
2022-11-26T02:17:01.155Z,97336.97
2022-11-26T02:20:06.067Z,97342.31
2022-11-26T02:23:00.106Z,97351.13
2022-11-26T02:25:43.290Z,97346.88
2022-11-26T02:28:34.495Z,97351.13
2022-11-26T02:31:13.057Z,97356.97
2022-11-26T02:33:53.315Z,97348.97
2022-11-26T02:36:32.923Z,97358.56
2022-11-26T02:39:14.128Z,97354.00
2022-11-26T02:41:50.096Z,97357.47
2022-11-26T02:44:25.384Z,97365.50
2022-11-26T02:47:03.914Z,97366.25
2022-11-26T02:49:39.322Z,97366.09
2022-11-26T02:52:15.471Z,97372.22
2022-11-26T02:54:50.785Z,97381.34
2022-11-26T02:57:28.039Z,97385.88
2022-11-26T03:00:01.328Z,97393.72
2022-11-26T03:02:41.682Z,97400.16
2022-11-26T03:05:17.651Z,97402.06
2022-11-26T03:07:53.139Z,97408.50
2022-11-26T03:10:28.172Z,97412.75
2022-11-26T03:13:01.114Z,97420.75
2022-11-26T03:15:34.203Z,97418.56
2022-11-26T03:18:08.506Z,97419.84
2022-11-26T03:20:41.439Z,97423.81
2022-11-26T03:23:14.252Z,97422.41
2022-11-26T03:25:47.254Z,97415.50
2022-11-26T03:28:20.054Z,97412.50
2022-11-26T03:30:53.620Z,97413.00
2022-11-26T03:33:27.884Z,97413.00
2022-11-26T03:36:00.853Z,97423.41
2022-11-26T03:38:33.689Z,97418.06
2022-11-26T03:41:06.806Z,97420.44
2022-11-26T03:43:39.625Z,97423.91
2022-11-26T03:46:12.542Z,97423.09
2022-11-26T03:48:46.831Z,97417.47
2022-11-26T03:51:19.632Z,97418.25
2022-11-26T03:53:52.424Z,97419.06
2022-11-26T03:56:25.378Z,97418.25
2022-11-26T03:58:58.215Z,97415.25
2022-11-26T04:01:31.073Z,97423.59
2022-11-26T04:04:05.793Z,97426.28
2022-11-26T04:06:38.618Z,97426.56
2022-11-26T04:09:11.479Z,97427.66
2022-11-26T04:11:44.325Z,97427.97
2022-11-26T04:14:17.581Z,97421.81
2022-11-26T04:16:50.520Z,97425.88
2022-11-26T04:19:24.811Z,97419.25
2022-11-26T04:21:57.736Z,97418.47
2022-11-26T04:24:31.021Z,97411.03
2022-11-26T04:27:04.063Z,97403.31
2022-11-26T04:29:37.491Z,97400.47
2022-11-26T04:32:10.473Z,97397.88
2022-11-26T04:34:44.651Z,97396.91
2022-11-26T04:37:17.497Z,97401.25
2022-11-26T04:39:50.285Z,97399.78
2022-11-26T04:42:23.213Z,97401.28
2022-11-26T04:44:56.086Z,97397.72
2022-11-26T04:47:28.907Z,97406.94
2022-11-26T04:50:03.114Z,97401.00
2022-11-26T04:52:36.035Z,97412.94
2022-11-26T04:55:09.489Z,97412.31
2022-11-26T04:57:42.323Z,97414.69
2022-11-26T05:00:17.025Z,97417.81
2022-11-26T05:02:49.884Z,97434.00
2022-11-26T05:05:24.155Z,97434.72
2022-11-26T05:07:57.097Z,97426.38
2022-11-26T05:10:29.858Z,97427.91
2022-11-26T05:13:02.804Z,97430.72
2022-11-26T05:15:35.632Z,97422.06
2022-11-26T05:18:08.576Z,97429.91
2022-11-26T05:20:42.855Z,97432.44
2022-11-26T05:23:15.761Z,97437.34
2022-11-26T05:25:48.957Z,97435.88
2022-11-26T05:28:21.832Z,97430.66
2022-11-26T05:30:58.991Z,97442.47
2022-11-26T05:33:32.464Z,97442.59
2022-11-26T05:36:07.087Z,97447.75
2022-11-26T05:38:40.019Z,97447.56
2022-11-26T05:41:12.884Z,97454.03
2022-11-26T05:43:45.722Z,97453.84
2022-11-26T05:46:19.988Z,97458.13
2022-11-26T05:48:53.043Z,97454.22
2022-11-26T05:51:27.471Z,97454.00
2022-11-26T05:54:00.471Z,97456.69
2022-11-26T05:56:33.258Z,97469.78
2022-11-26T05:59:06.091Z,97465.56
2022-11-26T06:01:38.981Z,97476.00
2022-11-26T06:04:11.873Z,97477.59
2022-11-26T06:06:46.071Z,97488.28
2022-11-26T06:09:18.875Z,97482.97
2022-11-26T06:11:51.760Z,97484.34
2022-11-26T06:14:24.622Z,97479.03
2022-11-26T06:16:57.487Z,97480.63
2022-11-26T06:19:30.334Z,97484.28
2022-11-26T06:22:04.804Z,97484.78
2022-11-26T06:24:38.036Z,97484.50
2022-11-26T06:27:11.272Z,97486.81
2022-11-26T06:29:45.158Z,97490.75
2022-11-26T06:32:17.989Z,97490.66
2022-11-26T06:34:53.985Z,97481.28
2022-11-26T06:37:28.684Z,97473.97
2022-11-26T06:40:01.731Z,97478.16
2022-11-26T06:42:35.227Z,97480.28
2022-11-26T06:45:08.988Z,97477.28
2022-11-26T06:47:41.923Z,97474.63
2022-11-26T06:50:15.494Z,97474.88
2022-11-26T06:52:51.780Z,97486.34
2022-11-26T06:55:24.649Z,97479.19
2022-11-26T06:57:57.447Z,97484.28
2022-11-26T07:00:30.413Z,97483.25
2022-11-26T07:03:03.271Z,97487.84
2022-11-26T07:05:36.397Z,97487.13
2022-11-26T07:08:10.608Z,97499.13
2022-11-26T07:10:48.669Z,97500.53
2022-11-26T07:13:21.990Z,97506.19
2022-11-26T07:15:54.848Z,97510.25
2022-11-26T07:18:27.722Z,97521.22
2022-11-26T07:21:06.285Z,97530.03
2022-11-26T07:23:41.806Z,97541.22
2022-11-26T07:26:15.636Z,97545.81
2022-11-26T07:28:48.419Z,97553.25
2022-11-26T07:31:22.815Z,97563.63
2022-11-26T07:33:55.713Z,97560.91
2022-11-26T07:36:30.925Z,97562.75
2022-11-26T07:39:05.317Z,97554.44
2022-11-26T07:41:38.567Z,97552.72
2022-11-26T07:44:14.375Z,97564.03
2022-11-26T07:46:47.250Z,97569.53
2022-11-26T07:49:20.266Z,97571.25
2022-11-26T07:51:53.184Z,97577.22
2022-11-26T07:54:27.341Z,97582.34
2022-11-26T07:57:00.180Z,97571.22
2022-11-26T07:59:32.979Z,97578.47
2022-11-26T08:02:05.868Z,97579.31
2022-11-26T08:04:39.044Z,97584.97
2022-11-26T08:07:16.067Z,97586.06
2022-11-26T08:09:54.267Z,97588.25
2022-11-26T08:12:27.533Z,97583.22
2022-11-26T08:15:00.325Z,97588.94
2022-11-26T08:17:33.178Z,97590.13
2022-11-26T08:20:07.490Z,97590.03
2022-11-26T08:22:40.732Z,97589.69
2022-11-26T08:25:15.020Z,97577.59
2022-11-26T08:27:47.901Z,97588.81
2022-11-26T08:30:20.833Z,97586.63
2022-11-26T08:32:53.883Z,97591.41
2022-11-26T08:35:44.403Z,97593.47
2022-11-26T08:38:19.732Z,97595.56
2022-11-26T08:40:54.443Z,97589.66
2022-11-26T08:43:45.014Z,97592.81
2022-11-26T08:46:21.838Z,97591.13
2022-11-26T08:48:56.448Z,97599.06
2022-11-26T08:51:29.274Z,97601.16
2022-11-26T08:54:02.509Z,97597.09
2022-11-26T08:56:37.335Z,97589.28
2022-11-26T08:59:10.175Z,97591.38
2022-11-26T09:01:43.189Z,97591.56
2022-11-26T09:04:16.192Z,97599.28
2022-11-26T09:06:48.983Z,97598.72
2022-11-26T09:09:21.815Z,97601.28
2022-11-26T09:11:59.961Z,97598.53
2022-11-26T09:14:37.905Z,97612.00
2022-11-26T09:17:12.658Z,97600.91
2022-11-26T09:19:45.502Z,97603.69
2022-11-26T09:22:18.263Z,97599.53
2022-11-26T09:24:51.108Z,97599.34
2022-11-26T09:27:25.324Z,97603.69
2022-11-26T09:29:58.243Z,97604.88
2022-11-26T09:32:34.306Z,97610.31
2022-11-26T09:35:08.276Z,97608.50
2022-11-26T09:37:41.056Z,97608.88
2022-11-26T09:40:19.515Z,97610.56
2022-11-26T09:43:05.314Z,97619.47
2022-11-26T09:45:45.653Z,97619.84
2022-11-26T09:48:24.191Z,97623.97
2022-11-26T09:51:04.711Z,97623.25
2022-11-26T09:53:42.806Z,97615.59
2022-11-26T09:56:22.174Z,97614.25
2022-11-26T09:59:01.705Z,97614.31
2022-11-26T10:01:35.682Z,97604.72
2022-11-26T10:04:09.842Z,97603.25
2022-11-26T10:06:52.425Z,97610.84
2022-11-26T10:09:37.884Z,97619.41
2022-11-26T10:12:26.476Z,97619.06
2022-11-26T10:15:11.543Z,97620.19
2022-11-26T10:17:55.004Z,97606.41
2022-11-26T10:20:46.638Z,97608.88
2022-11-26T10:23:27.127Z,97610.41
2022-11-26T10:26:06.982Z,97603.91
2022-11-26T10:28:46.314Z,97603.81
2022-11-26T10:31:23.573Z,97594.31
2022-11-26T10:33:58.984Z,97592.38
2022-11-26T10:36:36.649Z,97589.34
2022-11-26T10:39:14.258Z,97598.91
2022-11-26T10:41:47.941Z,97590.50
2022-11-26T10:44:32.238Z,97585.72
2022-11-26T10:47:26.008Z,97580.78
2022-11-26T10:50:40.029Z,97575.53
2022-11-26T10:53:20.709Z,97575.66
2022-11-26T10:55:57.125Z,97578.94
2022-11-26T10:58:35.080Z,97575.28
2022-11-26T11:01:08.867Z,97566.28
2022-11-26T11:04:08.744Z,97560.63
2022-11-26T11:06:43.793Z,97563.88
2022-11-26T11:09:29.145Z,97560.63
2022-11-26T11:12:26.065Z,97553.66
2022-11-26T11:15:20.243Z,97562.19
2022-11-26T11:17:59.167Z,97559.81
2022-11-26T11:20:39.208Z,97549.91
2022-11-26T11:23:40.027Z,97548.81
2022-11-26T11:26:22.448Z,97549.47
2022-11-26T11:28:56.817Z,97545.41
2022-11-26T11:31:29.613Z,97541.53
2022-11-26T11:34:14.993Z,97535.13
2022-11-26T11:36:59.651Z,97536.28
2022-11-26T11:39:33.910Z,97529.72
2022-11-26T11:42:18.165Z,97529.28
2022-11-26T11:44:53.374Z,97529.47
2022-11-26T11:47:37.247Z,97526.97
2022-11-26T11:50:22.488Z,97532.03
2022-11-26T11:53:09.778Z,97525.38
2022-11-26T11:56:02.223Z,97524.09
2022-11-26T11:59:02.033Z,97522.84
2022-11-26T12:01:51.687Z,97522.66
2022-11-26T12:04:39.790Z,97522.16
2022-11-26T12:07:36.768Z,97527.06
2022-11-26T12:10:16.186Z,97524.38
2022-11-26T12:12:52.482Z,97515.53
2022-11-26T12:15:29.493Z,97519.81
2022-11-26T12:18:08.170Z,97520.28
2022-11-26T12:20:45.088Z,97527.72
2022-11-26T12:23:29.446Z,97524.91
2022-11-26T12:26:12.050Z,97517.53
2022-11-26T12:28:53.800Z,97513.63
2022-11-26T12:31:32.189Z,97516.16
2022-11-26T12:34:11.425Z,97507.81
2022-11-26T12:36:51.206Z,97518.25
2022-11-26T12:39:37.037Z,97504.53
2022-11-26T12:42:18.118Z,97522.22
2022-11-26T12:44:54.848Z,97515.84
2022-11-26T12:47:34.128Z,97521.84
2022-11-26T12:50:16.816Z,97525.94
2022-11-26T12:52:58.706Z,97527.47
2022-11-26T12:55:34.411Z,97520.16
2022-11-26T12:58:15.521Z,97522.34
2022-11-26T13:00:49.767Z,97519.13
2022-11-26T13:03:28.516Z,97519.25
2022-11-26T13:06:08.055Z,97518.91
2022-11-26T13:08:49.751Z,97520.88
2022-11-26T13:11:38.378Z,97529.53
2022-11-26T13:14:19.590Z,97526.97
2022-11-26T13:16:58.273Z,97519.06
2022-11-26T13:19:37.360Z,97520.44
2022-11-26T13:22:41.653Z,97518.88
2022-11-26T13:25:38.454Z,97523.72
2022-11-26T13:28:22.817Z,97519.50
2022-11-26T13:31:15.777Z,97505.13
2022-11-26T13:34:04.997Z,97509.66
2022-11-26T13:36:56.303Z,97493.13
2022-11-26T13:40:08.935Z,97496.41
2022-11-26T13:43:03.574Z,97492.44
2022-11-26T13:45:51.485Z,97489.28
2022-11-26T13:48:34.820Z,97492.09
2022-11-26T13:51:15.375Z,97490.28
2022-11-26T13:53:53.381Z,97482.56
2022-11-26T13:56:32.184Z,97480.50
2022-11-26T13:59:09.107Z,97482.19
2022-11-26T14:01:42.641Z,97484.69
2022-11-26T14:04:53.402Z,97500.25
2022-11-26T14:07:26.594Z,97487.47
2022-11-26T14:10:01.176Z,97478.97
2022-11-26T14:13:17.412Z,97477.38
2022-11-26T14:16:02.521Z,97481.41
2022-11-26T14:18:56.640Z,97490.53
2022-11-26T14:21:31.649Z,97489.06
2022-11-26T14:24:04.862Z,97490.16
2022-11-26T14:26:38.534Z,97502.22
2022-11-26T14:29:15.236Z,97504.91
2022-11-26T14:31:52.188Z,97494.03
2022-11-26T14:34:32.306Z,97498.59
2022-11-26T14:37:15.092Z,97493.03
2022-11-26T14:39:58.216Z,97489.84
2022-11-26T14:42:31.397Z,97486.19
2022-11-26T14:45:05.847Z,97480.84
2022-11-26T14:47:38.609Z,97476.09
2022-11-26T14:50:15.181Z,97479.56
2022-11-26T14:52:56.518Z,97467.56
2022-11-26T14:55:31.718Z,97472.75
2022-11-26T14:58:09.733Z,97470.66
2022-11-26T15:00:42.874Z,97467.47
2022-11-26T15:03:23.985Z,97468.56
2022-11-26T15:05:57.072Z,97476.69
2022-11-26T15:08:31.391Z,97473.53
2022-11-26T15:11:08.070Z,97467.22
2022-11-26T15:13:45.956Z,97466.72
2022-11-26T15:16:33.048Z,97464.16
2022-11-26T15:19:07.797Z,97467.69
2022-11-26T15:21:41.784Z,97470.47
2022-11-26T15:24:16.898Z,97472.34
2022-11-26T15:26:49.845Z,97457.19
2022-11-26T15:29:35.480Z,97462.03
2022-11-26T15:32:25.580Z,97462.13
2022-11-26T15:35:01.308Z,97471.06
2022-11-26T15:37:35.174Z,97466.88
2022-11-26T15:40:21.554Z,97455.78
2022-11-26T15:42:58.550Z,97466.06
2022-11-26T15:45:39.053Z,97455.78
2022-11-26T15:48:27.747Z,97455.38
2022-11-26T15:51:04.924Z,97461.34
2022-11-26T15:53:45.467Z,97452.94
2022-11-26T15:56:21.722Z,97457.06
2022-11-26T15:58:58.229Z,97458.53
2022-11-26T16:01:35.196Z,97455.44
2022-11-26T16:04:40.068Z,97457.16
2022-11-26T16:07:14.842Z,97449.03
2022-11-26T16:09:49.445Z,97451.84
2022-11-26T16:12:44.309Z,97453.28
2022-11-26T16:15:22.624Z,97450.25
2022-11-26T16:17:55.738Z,97452.56
2022-11-26T16:20:30.435Z,97448.94
2022-11-26T16:23:03.326Z,97455.47
2022-11-26T16:25:37.251Z,97454.53
2022-11-26T16:28:16.894Z,97456.22
2022-11-26T16:30:52.783Z,97467.00
2022-11-26T16:33:28.145Z,97467.16
2022-11-26T16:36:02.045Z,97474.16
2022-11-26T16:38:34.858Z,97467.06
2022-11-26T16:41:12.440Z,97468.47
2022-11-26T16:43:46.813Z,97472.81
2022-11-26T16:46:23.442Z,97474.78
2022-11-26T16:48:56.472Z,97471.13
2022-11-26T16:51:29.486Z,97472.53
2022-11-26T16:54:02.295Z,97469.91
2022-11-26T16:56:38.528Z,97474.50
2022-11-26T16:59:20.091Z,97469.47
2022-11-26T17:01:53.013Z,97473.03
2022-11-26T17:04:25.857Z,97463.75
2022-11-26T17:06:58.955Z,97463.25
2022-11-26T17:09:31.834Z,97465.97
2022-11-26T17:12:04.880Z,97468.66
2022-11-26T17:14:39.048Z,97464.16
2022-11-26T17:17:13.872Z,97468.72
2022-11-26T17:19:46.764Z,97462.41
2022-11-26T17:22:20.313Z,97466.66
2022-11-26T17:24:53.089Z,97467.50
2022-11-26T17:27:26.720Z,97459.81
2022-11-26T17:30:00.931Z,97465.69
2022-11-26T17:32:33.756Z,97458.53
2022-11-26T17:35:06.843Z,97460.41
2022-11-26T17:37:40.567Z,97473.72
2022-11-26T17:40:18.777Z,97467.38
2022-11-26T17:42:52.085Z,97466.84
2022-11-26T17:45:26.465Z,97467.94
2022-11-26T17:47:59.403Z,97470.09
2022-11-26T17:50:33.492Z,97469.03
2022-11-26T17:53:06.487Z,97474.38
2022-11-26T17:55:39.661Z,97475.97
2022-11-26T17:58:13.104Z,97475.19
2022-11-26T18:00:47.268Z,97480.75
2022-11-26T18:03:20.107Z,97482.91
2022-11-26T18:05:52.880Z,97476.56
2022-11-26T18:08:25.736Z,97479.72
2022-11-26T18:10:58.524Z,97461.16
2022-11-26T18:13:31.337Z,97464.34
2022-11-26T18:16:05.947Z,97467.78
2022-11-26T18:18:39.896Z,97465.69
2022-11-26T18:21:13.543Z,97474.44
2022-11-26T18:23:48.159Z,97473.91
2022-11-26T18:26:20.972Z,97476.56
2022-11-26T18:28:53.807Z,97474.44
2022-11-26T18:31:28.417Z,97474.44
2022-11-26T18:34:01.801Z,97484.78
2022-11-26T18:36:34.642Z,97476.84
2022-11-26T18:39:07.547Z,97474.19
2022-11-26T18:41:40.326Z,97481.88
2022-11-26T18:44:13.340Z,97478.13
2022-11-26T18:46:47.478Z,97479.50
2022-11-26T18:49:20.542Z,97478.66
2022-11-26T18:51:53.313Z,97480.81
2022-11-26T18:54:26.167Z,97467.53
2022-11-26T18:56:59.004Z,97467.00
2022-11-26T18:59:31.976Z,97468.56
2022-11-26T19:02:06.221Z,97481.81
2022-11-26T19:04:39.855Z,97472.78
2022-11-26T19:07:13.880Z,97474.13
2022-11-26T19:09:46.841Z,97474.91
2022-11-26T19:12:19.642Z,97478.84
2022-11-26T19:14:52.523Z,97471.19
2022-11-26T19:17:27.164Z,97472.50
2022-11-26T19:20:00.236Z,97458.72
2022-11-26T19:22:33.054Z,97470.63
2022-11-26T19:25:06.696Z,97471.72
2022-11-26T19:27:39.606Z,97470.13
2022-11-26T19:30:17.367Z,97475.91
2022-11-26T19:32:51.576Z,97476.22
2022-11-26T19:35:24.783Z,97468.25
2022-11-26T19:37:57.554Z,97471.41
2022-11-26T19:40:30.406Z,97466.91
2022-11-26T19:43:03.228Z,97468.25
2022-11-26T19:45:36.080Z,97458.47
2022-11-26T19:48:10.307Z,97460.59
2022-11-26T19:50:43.173Z,97461.09
2022-11-26T19:53:15.972Z,97458.19
2022-11-26T19:55:56.349Z,97439.94
2022-11-26T19:58:30.680Z,97444.97
2022-11-26T20:01:06.727Z,97440.47
2022-11-26T20:03:41.117Z,97447.06
2022-11-26T20:06:16.713Z,97442.84
2022-11-26T20:08:50.367Z,97442.03
2022-11-26T20:11:25.338Z,97449.72
2022-11-26T20:13:58.941Z,97447.34
2022-11-26T20:16:33.519Z,97449.22
2022-11-26T20:19:08.373Z,97459.03
2022-11-26T20:21:41.341Z,97451.34
2022-11-26T20:24:17.695Z,97455.56
2022-11-26T20:26:51.011Z,97461.66
2022-11-26T20:29:25.184Z,97453.16
2022-11-26T20:31:58.007Z,97447.34
2022-11-26T20:34:33.659Z,97456.34
2022-11-26T20:37:06.464Z,97456.06
2022-11-26T20:39:39.759Z,97462.69
2022-11-26T20:42:15.232Z,97468.78
2022-11-26T20:44:48.022Z,97466.63
2022-11-26T20:47:20.999Z,97466.13
2022-11-26T20:49:55.571Z,97462.13
2022-11-26T20:52:28.413Z,97460.25
2022-11-26T20:55:01.231Z,97451.78
2022-11-26T20:57:36.518Z,97447.00
2022-11-26T21:00:10.691Z,97453.63
2022-11-26T21:02:43.651Z,97449.38
2022-11-26T21:05:18.525Z,97434.03
2022-11-26T21:07:52.134Z,97426.34
2022-11-26T21:10:26.678Z,97418.63
2022-11-26T21:12:59.600Z,97407.78
2022-11-26T21:15:32.390Z,97395.59
2022-11-26T21:18:05.731Z,97393.22
2022-11-26T21:20:42.198Z,97381.81
2022-11-26T21:23:15.154Z,97372.81
2022-11-26T21:25:48.182Z,97373.84
2022-11-26T21:28:21.113Z,97370.94
2022-11-26T21:30:53.948Z,97377.31
2022-11-26T21:33:26.829Z,97383.91
2022-11-26T21:36:06.620Z,97384.16
2022-11-26T21:38:40.961Z,97388.41
2022-11-26T21:41:15.613Z,97386.00
2022-11-26T21:43:49.518Z,97385.72
2022-11-26T21:46:23.727Z,97386.25
2022-11-26T21:48:58.002Z,97390.22
2022-11-26T21:51:32.228Z,97401.28
2022-11-26T21:54:05.475Z,97396.53
2022-11-26T21:56:38.393Z,97392.00
2022-11-26T21:59:11.386Z,97406.56
2022-11-26T22:01:44.414Z,97411.31
2022-11-26T22:04:19.681Z,97418.97
2022-11-26T22:06:53.991Z,97414.72
2022-11-26T22:09:26.849Z,97411.56
2022-11-26T22:12:00.151Z,97402.03
2022-11-26T22:14:32.980Z,97402.81
2022-11-26T22:17:05.873Z,97407.56
2022-11-26T22:19:38.916Z,97411.28
2022-11-26T22:22:13.282Z,97416.81
2022-11-26T22:24:46.127Z,97417.84
2022-11-26T22:27:18.954Z,97428.72
2022-11-26T22:29:51.756Z,97427.94
2022-11-26T22:32:24.542Z,97438.50
2022-11-26T22:34:57.688Z,97448.81
2022-11-26T22:37:32.292Z,97456.00
2022-11-26T22:40:06.004Z,97448.31
2022-11-26T22:42:41.431Z,97453.91
2022-11-26T22:45:14.499Z,97461.91
2022-11-26T22:47:51.467Z,97468.84
2022-11-26T22:50:25.782Z,97466.00
2022-11-26T22:52:59.952Z,97461.25
2022-11-26T22:55:32.772Z,97468.47
2022-11-26T22:58:05.607Z,97458.69
2022-11-26T23:00:47.037Z,97460.31
2022-11-26T23:03:21.592Z,97458.47
2022-11-26T23:05:55.204Z,97456.41
2022-11-26T23:08:29.481Z,97455.88
2022-11-26T23:11:06.592Z,97449.00
2022-11-26T23:13:41.131Z,97442.09
2022-11-26T23:16:14.334Z,97445.00
2022-11-26T23:18:47.206Z,97439.97
2022-11-26T23:21:22.142Z,97434.09
2022-11-26T23:23:57.056Z,97435.94
2022-11-26T23:26:32.937Z,97419.47
2022-11-26T23:29:06.830Z,97422.38
2022-11-26T23:31:41.696Z,97413.03
2022-11-26T23:34:15.735Z,97412.75
2022-11-26T23:36:48.571Z,97423.06
2022-11-26T23:39:22.714Z,97429.97
2022-11-26T23:41:55.525Z,97428.09
2022-11-26T23:44:28.341Z,97429.91
2022-11-26T23:47:01.153Z,97425.38
2022-11-26T23:49:34.031Z,97415.00
2022-11-26T23:52:07.173Z,97419.50
2022-11-26T23:54:41.305Z,97422.63
2022-11-26T23:57:15.275Z,97423.16
2022-11-26T23:59:48.176Z,97418.59
